createdAt,value
2022-09-28T00:00:30.533Z,92.23
2022-09-28T00:01:30.557Z,91.99
2022-09-28T00:02:30.604Z,92.08
2022-09-28T00:03:30.509Z,91.67
2022-09-28T00:04:30.521Z,92.19
2022-09-28T00:05:30.482Z,92.08
2022-09-28T00:06:30.490Z,92.08
2022-09-28T00:07:30.475Z,92.29
2022-09-28T00:08:30.456Z,91.88
2022-09-28T00:09:30.434Z,91.47
2022-09-28T00:10:30.467Z,91.53
2022-09-28T00:11:30.425Z,91.57
2022-09-28T00:12:30.414Z,90.75
2022-09-28T00:13:30.427Z,90.95
2022-09-28T00:14:30.402Z,91.47
2022-09-28T00:15:30.392Z,91.33
2022-09-28T00:16:30.433Z,91.22
2022-09-28T00:17:30.369Z,91.67
2022-09-28T00:18:30.397Z,91.63
2022-09-28T00:19:30.346Z,91.74
2022-09-28T00:20:30.336Z,91.84
2022-09-28T00:21:30.327Z,91.53
2022-09-28T00:22:30.317Z,91.57
2022-09-28T00:23:30.306Z,91.78
2022-09-28T00:24:30.320Z,91.47
2022-09-28T00:25:30.291Z,91.99
2022-09-28T00:26:30.275Z,91.63
2022-09-28T00:27:31.274Z,91.47
2022-09-28T00:28:30.265Z,92.08
2022-09-28T00:29:30.264Z,91.88
2022-09-28T00:30:30.250Z,91.84
2022-09-28T00:31:30.324Z,91.27
2022-09-28T00:32:30.224Z,91.33
2022-09-28T00:33:30.215Z,91.94
2022-09-28T00:34:30.222Z,91.57
2022-09-28T00:35:30.197Z,91.67
2022-09-28T00:36:30.187Z,90.81
2022-09-28T00:37:30.189Z,90.85
2022-09-28T00:38:30.178Z,91.22
2022-09-28T00:39:30.153Z,91.22
2022-09-28T00:40:30.228Z,91.78
2022-09-28T00:41:30.128Z,91.63
2022-09-28T00:42:30.140Z,91.94
2022-09-28T00:43:30.112Z,91.74
2022-09-28T00:44:30.104Z,91.94
2022-09-28T00:45:30.152Z,91.47
2022-09-28T00:46:30.086Z,91.12
2022-09-28T00:47:30.073Z,91.33
2022-09-28T00:48:30.089Z,91.37
2022-09-28T00:49:30.077Z,91.37
2022-09-28T00:50:30.045Z,91.42
2022-09-28T00:51:30.035Z,91.42
2022-09-28T00:52:30.055Z,91.42
2022-09-28T00:53:30.020Z,91.42
2022-09-28T00:54:30.011Z,91.74
2022-09-28T00:55:30.011Z,91.53
2022-09-28T00:56:29.997Z,91.94
2022-09-28T00:57:29.969Z,91.63
2022-09-28T00:58:29.959Z,91.53
2022-09-28T00:59:29.957Z,91.27
2022-09-28T01:00:29.947Z,91.63
2022-09-28T01:01:29.946Z,91.84
2022-09-28T01:02:29.977Z,91.42
2022-09-28T01:03:29.916Z,91.42
2022-09-28T01:04:30.170Z,91.63
2022-09-28T01:05:30.907Z,91.74
2022-09-28T01:06:29.892Z,91.42
2022-09-28T01:07:29.873Z,91.33
2022-09-28T01:08:29.889Z,91.63
2022-09-28T01:09:29.858Z,91.33
2022-09-28T01:10:29.850Z,91.53
2022-09-28T01:11:29.826Z,91.53
2022-09-28T01:12:29.821Z,91.28
2022-09-28T01:13:29.825Z,90.81
2022-09-28T01:14:29.809Z,91.02
2022-09-28T01:15:29.781Z,91.53
2022-09-28T01:16:29.860Z,90.91
2022-09-28T01:17:29.800Z,90.95
2022-09-28T01:18:29.760Z,91.37
2022-09-28T01:19:29.761Z,90.81
2022-09-28T01:20:29.758Z,90.85
2022-09-28T01:21:29.731Z,91.12
2022-09-28T01:22:29.712Z,91.12
2022-09-28T01:23:29.732Z,91.33
2022-09-28T01:24:29.695Z,91.12
2022-09-28T01:25:29.705Z,91.06
2022-09-28T01:26:29.682Z,91.16
2022-09-28T01:27:29.705Z,90.85
2022-09-28T01:28:29.677Z,91.06
2022-09-28T01:29:29.664Z,91.06
2022-09-28T01:30:29.644Z,90.91
2022-09-28T01:31:29.690Z,90.95
2022-09-28T01:32:29.639Z,90.91
2022-09-28T01:33:29.617Z,91.67
2022-09-28T01:34:29.601Z,91.22
2022-09-28T01:35:29.595Z,91.02
2022-09-28T01:36:29.588Z,90.61
2022-09-28T01:37:29.587Z,90.20
2022-09-28T01:38:29.570Z,90.81
2022-09-28T01:39:29.564Z,91.02
2022-09-28T01:40:29.597Z,90.81
2022-09-28T01:41:29.544Z,90.61
2022-09-28T01:42:29.539Z,90.81
2022-09-28T01:43:29.524Z,91.02
2022-09-28T01:44:29.521Z,91.06
2022-09-28T01:45:29.593Z,91.33
2022-09-28T01:46:29.479Z,91.02
2022-09-28T01:47:29.475Z,91.18
2022-09-28T01:48:29.466Z,91.12
2022-09-28T01:49:29.459Z,91.33
2022-09-28T01:50:29.468Z,91.53
2022-09-28T01:51:29.455Z,91.63
2022-09-28T01:52:29.432Z,91.33
2022-09-28T01:53:29.426Z,91.49
2022-09-28T01:54:29.423Z,91.69
2022-09-28T01:55:29.434Z,90.97
2022-09-28T01:56:29.401Z,91.49
2022-09-28T01:57:29.389Z,91.59
2022-09-28T01:58:29.394Z,91.59
2022-09-28T01:59:29.373Z,91.42
2022-09-28T02:00:29.497Z,91.42
2022-09-28T02:01:29.356Z,91.63
2022-09-28T02:02:29.411Z,92.10
2022-09-28T02:03:29.389Z,92.14
2022-09-28T02:04:29.328Z,92.14
2022-09-28T02:05:29.309Z,92.10
2022-09-28T02:06:29.296Z,92.31
2022-09-28T02:08:01.191Z,92.35
2022-09-28T02:08:29.290Z,92.55
2022-09-28T02:09:33.601Z,92.35
2022-09-28T02:10:30.251Z,92.31
2022-09-28T02:11:29.259Z,92.00
2022-09-28T02:12:29.225Z,92.46
2022-09-28T02:13:29.231Z,92.41
2022-09-28T02:14:29.230Z,92.21
2022-09-28T02:15:29.198Z,92.10
2022-09-28T02:16:29.260Z,92.10
2022-09-28T02:17:29.184Z,92.31
2022-09-28T02:18:29.188Z,92.10
2022-09-28T02:19:29.171Z,91.90
2022-09-28T02:20:29.161Z,92.31
2022-09-28T02:21:29.182Z,92.41
2022-09-28T02:22:29.145Z,92.55
2022-09-28T02:23:29.131Z,92.66
2022-09-28T02:24:29.107Z,93.17
2022-09-28T02:25:29.102Z,92.66
2022-09-28T02:26:29.090Z,92.66
2022-09-28T02:27:29.120Z,92.66
2022-09-28T02:28:29.073Z,92.66
2022-09-28T02:29:29.066Z,93.17
2022-09-28T02:30:29.058Z,93.48
2022-09-28T02:31:29.070Z,93.48
2022-09-28T02:32:29.054Z,93.07
2022-09-28T02:33:29.031Z,92.97
2022-09-28T02:34:29.045Z,93.38
2022-09-28T02:35:29.015Z,93.68
2022-09-28T02:36:29.008Z,93.59
2022-09-28T02:37:28.982Z,94.04
2022-09-28T02:38:28.991Z,93.68
2022-09-28T02:39:28.983Z,94.04
2022-09-28T02:40:29.015Z,93.42
2022-09-28T02:41:28.961Z,93.48
2022-09-28T02:42:28.960Z,93.52
2022-09-28T02:43:28.936Z,94.55
2022-09-28T02:44:28.920Z,93.99
2022-09-28T02:45:28.977Z,94.55
2022-09-28T02:46:28.918Z,93.68
2022-09-28T02:47:28.893Z,93.83
2022-09-28T02:48:43.051Z,94.61
2022-09-28T02:49:31.064Z,93.89
2022-09-28T02:50:28.876Z,93.99
2022-09-28T02:51:28.874Z,93.99
2022-09-28T02:52:28.841Z,93.89
2022-09-28T02:53:28.828Z,93.95
2022-09-28T02:54:28.826Z,93.13
2022-09-28T02:55:28.831Z,93.23
2022-09-28T02:56:28.822Z,92.93
2022-09-28T02:57:28.803Z,92.72
2022-09-28T02:58:28.790Z,92.47
2022-09-28T02:59:28.772Z,92.41
2022-09-28T03:00:28.792Z,92.41
2022-09-28T03:01:28.750Z,92.31
2022-09-28T03:02:28.814Z,92.21
2022-09-28T03:03:28.736Z,92.61
2022-09-28T03:04:28.734Z,92.51
2022-09-28T03:05:28.732Z,92.61
2022-09-28T03:06:28.719Z,92.51
2022-09-28T03:07:28.699Z,92.57
2022-09-28T03:08:28.723Z,91.69
2022-09-28T03:09:28.687Z,92.21
2022-09-28T03:10:28.696Z,92.21
2022-09-28T03:11:28.666Z,92.51
2022-09-28T03:12:28.666Z,92.61
2022-09-28T03:13:28.647Z,93.07
2022-09-28T03:14:28.645Z,93.13
2022-09-28T03:15:28.637Z,92.82
2022-09-28T03:16:28.643Z,92.72
2022-09-28T03:17:28.607Z,92.51
2022-09-28T03:18:28.608Z,92.61
2022-09-28T03:19:28.585Z,92.93
2022-09-28T03:20:28.571Z,92.51
2022-09-28T03:21:28.582Z,92.51
2022-09-28T03:22:28.552Z,92.61
2022-09-28T03:23:28.547Z,92.31
2022-09-28T03:24:28.536Z,92.51
2022-09-28T03:25:28.546Z,92.61
2022-09-28T03:26:28.532Z,92.51
2022-09-28T03:27:28.512Z,92.61
2022-09-28T03:28:28.501Z,92.72
2022-09-28T03:29:28.491Z,92.61
2022-09-28T03:30:28.497Z,92.31
2022-09-28T03:31:28.523Z,92.51
2022-09-28T03:32:28.481Z,92.27
2022-09-28T03:33:28.466Z,92.72
2022-09-28T03:34:28.439Z,92.51
2022-09-28T03:35:28.442Z,92.21
2022-09-28T03:36:28.429Z,92.82
2022-09-28T03:37:28.414Z,92.51
2022-09-28T03:38:28.420Z,92.61
2022-09-28T03:39:28.394Z,92.61
2022-09-28T03:40:28.448Z,92.51
2022-09-28T03:41:28.373Z,92.61
2022-09-28T03:42:28.371Z,92.82
2022-09-28T03:43:28.376Z,92.51
2022-09-28T03:44:28.351Z,92.82
2022-09-28T03:45:28.440Z,92.61
2022-09-28T03:46:28.324Z,92.51
2022-09-28T03:47:28.317Z,93.02
2022-09-28T03:48:32.155Z,93.23
2022-09-28T03:49:29.294Z,92.61
2022-09-28T03:50:28.301Z,92.82
2022-09-28T03:51:28.297Z,93.13
2022-09-28T03:52:28.274Z,93.19
2022-09-28T03:53:28.281Z,93.13
2022-09-28T03:54:28.255Z,92.88
2022-09-28T03:55:28.235Z,92.68
2022-09-28T03:56:28.245Z,92.68
2022-09-28T03:57:28.247Z,92.68
2022-09-28T03:58:28.236Z,92.82
2022-09-28T03:59:28.205Z,92.72
2022-09-28T04:00:28.277Z,92.72
2022-09-28T04:01:28.216Z,92.61
2022-09-28T04:02:28.207Z,92.61
2022-09-28T04:03:28.203Z,92.82
2022-09-28T04:04:28.173Z,93.13
2022-09-28T04:05:28.150Z,93.02
2022-09-28T04:06:28.134Z,92.51
2022-09-28T04:07:31.047Z,92.82
2022-09-28T04:08:29.110Z,93.44
2022-09-28T04:09:28.121Z,93.48
2022-09-28T04:10:28.086Z,93.48
2022-09-28T04:11:34.946Z,93.79
2022-09-28T04:12:29.099Z,93.79
2022-09-28T04:13:28.060Z,94.51
2022-09-28T04:14:28.053Z,93.99
2022-09-28T04:15:28.047Z,94.61
2022-09-28T04:16:28.067Z,94.61
2022-09-28T04:17:28.050Z,94.98
2022-09-28T04:18:28.016Z,93.89
2022-09-28T04:19:28.000Z,93.13
2022-09-28T04:20:28.016Z,92.61
2022-09-28T04:21:27.999Z,92.93
2022-09-28T04:22:28.006Z,93.23
2022-09-28T04:23:27.974Z,93.08
2022-09-28T04:24:27.949Z,93.08
2022-09-28T04:25:27.955Z,92.47
2022-09-28T04:26:27.938Z,92.74
2022-09-28T04:27:27.946Z,92.74
2022-09-28T04:28:27.934Z,92.68
2022-09-28T04:29:27.908Z,92.32
2022-09-28T04:30:27.888Z,91.96
2022-09-28T04:31:27.915Z,92.36
2022-09-28T04:32:27.885Z,92.32
2022-09-28T04:33:27.875Z,92.47
2022-09-28T04:34:31.875Z,92.57
2022-09-28T04:35:27.847Z,92.12
2022-09-28T04:36:27.838Z,91.91
2022-09-28T04:37:27.849Z,92.06
2022-09-28T04:38:48.833Z,92.43
2022-09-28T04:39:29.808Z,92.27
2022-09-28T04:40:27.826Z,92.22
2022-09-28T04:41:27.783Z,92.32
2022-09-28T04:42:27.781Z,92.22
2022-09-28T04:43:27.774Z,92.02
2022-09-28T04:44:27.756Z,92.02
2022-09-28T04:45:27.800Z,91.91
2022-09-28T04:46:27.737Z,92.22
2022-09-28T04:47:27.734Z,92.57
2022-09-28T04:48:27.730Z,92.63
2022-09-28T04:49:27.707Z,92.43
2022-09-28T04:50:27.692Z,92.57
2022-09-28T04:51:27.689Z,92.74
2022-09-28T04:52:27.692Z,92.53
2022-09-28T04:53:27.666Z,92.43
2022-09-28T04:54:27.664Z,92.12
2022-09-28T04:55:27.649Z,92.22
2022-09-28T04:56:27.650Z,92.22
2022-09-28T04:57:27.648Z,92.02
2022-09-28T04:58:27.635Z,92.22
2022-09-28T04:59:27.630Z,92.22
2022-09-28T05:00:27.600Z,92.36
2022-09-28T05:01:27.719Z,92.68
2022-09-28T05:02:27.642Z,92.53
2022-09-28T05:03:27.578Z,92.57
2022-09-28T05:04:27.596Z,92.47
2022-09-28T05:05:27.559Z,92.88
2022-09-28T05:06:27.553Z,92.78
2022-09-28T05:07:27.551Z,92.93
2022-09-28T05:08:27.523Z,93.33
2022-09-28T05:09:27.520Z,93.44
2022-09-28T05:10:27.534Z,93.95
2022-09-28T05:11:27.490Z,93.90
2022-09-28T05:12:27.483Z,93.39
2022-09-28T05:13:27.486Z,93.70
2022-09-28T05:14:27.469Z,93.19
2022-09-28T05:15:27.482Z,93.29
2022-09-28T05:16:27.459Z,93.19
2022-09-28T05:17:27.429Z,92.63
2022-09-28T05:18:27.426Z,93.08
2022-09-28T05:19:27.431Z,93.04
2022-09-28T05:20:27.414Z,93.39
2022-09-28T05:21:27.418Z,93.60
2022-09-28T05:22:27.402Z,93.08
2022-09-28T05:23:27.385Z,92.74
2022-09-28T05:24:27.378Z,92.94
2022-09-28T05:25:27.360Z,92.83
2022-09-28T05:26:27.387Z,93.04
2022-09-28T05:27:27.348Z,93.29
2022-09-28T05:28:27.335Z,92.83
2022-09-28T05:29:31.424Z,92.83
2022-09-28T05:30:28.331Z,92.57
2022-09-28T05:31:27.360Z,92.47
2022-09-28T05:32:28.318Z,92.43
2022-09-28T05:33:27.292Z,92.53
2022-09-28T05:34:27.292Z,92.63
2022-09-28T05:35:27.281Z,92.83
2022-09-28T05:36:27.260Z,92.83
2022-09-28T05:37:27.239Z,92.32
2022-09-28T05:38:27.244Z,92.32
2022-09-28T05:39:27.227Z,92.43
2022-09-28T05:40:27.255Z,92.53
2022-09-28T05:41:27.206Z,92.02
2022-09-28T05:42:27.201Z,91.96
2022-09-28T05:43:27.198Z,92.47
2022-09-28T05:44:27.166Z,92.57
2022-09-28T05:45:27.241Z,92.88
2022-09-28T05:46:27.217Z,92.88
2022-09-28T05:47:27.140Z,92.88
2022-09-28T05:48:27.157Z,92.78
2022-09-28T05:49:27.139Z,92.88
2022-09-28T05:50:27.122Z,92.88
2022-09-28T05:51:27.142Z,92.98
2022-09-28T05:52:27.101Z,92.78
2022-09-28T05:53:27.075Z,93.08
2022-09-28T05:54:27.084Z,93.08
2022-09-28T05:55:27.135Z,92.78
2022-09-28T05:56:27.060Z,93.04
2022-09-28T05:57:27.048Z,93.04
2022-09-28T05:58:27.041Z,93.45
2022-09-28T05:59:27.037Z,92.98
2022-09-28T06:00:27.041Z,93.04
2022-09-28T06:01:27.147Z,92.83
2022-09-28T06:02:27.065Z,92.68
2022-09-28T06:03:26.988Z,92.74
2022-09-28T06:04:26.973Z,92.47
2022-09-28T06:05:26.991Z,92.32
2022-09-28T06:06:26.959Z,91.96
2022-09-28T06:07:26.966Z,92.27
2022-09-28T06:08:26.955Z,92.06
2022-09-28T06:09:26.924Z,92.16
2022-09-28T06:10:26.924Z,91.96
2022-09-28T06:11:26.944Z,91.50
2022-09-28T06:12:26.928Z,92.06
2022-09-28T06:13:26.911Z,92.02
2022-09-28T06:14:26.881Z,92.16
2022-09-28T06:15:26.872Z,92.27
2022-09-28T06:16:26.899Z,91.86
2022-09-28T06:17:26.853Z,92.06
2022-09-28T06:18:26.871Z,92.36
2022-09-28T06:19:26.825Z,92.22
2022-09-28T06:20:26.817Z,92.12
2022-09-28T06:21:26.819Z,91.20
2022-09-28T06:22:26.795Z,91.50
2022-09-28T06:23:26.788Z,91.40
2022-09-28T06:24:27.785Z,91.16
2022-09-28T06:25:26.761Z,91.16
2022-09-28T06:26:27.774Z,90.58
2022-09-28T06:27:26.746Z,90.84
2022-09-28T06:28:26.761Z,91.16
2022-09-28T06:29:26.753Z,90.75
2022-09-28T06:30:26.751Z,90.34
2022-09-28T06:31:27.715Z,90.07
2022-09-28T06:32:26.710Z,90.58
2022-09-28T06:33:26.698Z,90.79
2022-09-28T06:34:26.706Z,90.99
2022-09-28T06:35:26.672Z,90.69
2022-09-28T06:36:26.655Z,90.79
2022-09-28T06:37:26.649Z,89.60
2022-09-28T06:38:26.650Z,89.29
2022-09-28T06:39:26.628Z,89.76
2022-09-28T06:40:26.683Z,90.07
2022-09-28T06:41:26.634Z,89.66
2022-09-28T06:42:26.605Z,90.07
2022-09-28T06:43:28.906Z,89.62
2022-09-28T06:44:26.586Z,89.36
2022-09-28T06:45:27.571Z,88.74
2022-09-28T06:46:26.631Z,89.04
2022-09-28T06:47:26.558Z,89.04
2022-09-28T06:48:26.551Z,89.15
2022-09-28T06:49:26.537Z,89.62
2022-09-28T06:50:26.531Z,88.39
2022-09-28T06:51:26.534Z,89.45
2022-09-28T06:52:26.502Z,89.25
2022-09-28T06:53:26.493Z,88.90
2022-09-28T06:54:26.506Z,90.03
2022-09-28T06:55:26.472Z,87.67
2022-09-28T06:56:29.432Z,88.90
2022-09-28T06:57:28.459Z,88.90
2022-09-28T06:58:26.441Z,88.43
2022-09-28T06:59:26.430Z,88.59
2022-09-28T07:00:26.510Z,88.08
2022-09-28T07:01:26.480Z,88.18
2022-09-28T07:02:26.466Z,87.98
2022-09-28T07:03:26.394Z,88.08
2022-09-28T07:04:26.385Z,87.47
2022-09-28T07:05:26.384Z,87.16
2022-09-28T07:06:26.372Z,87.84
2022-09-28T07:07:26.377Z,87.12
2022-09-28T07:08:26.363Z,87.73
2022-09-28T07:09:32.812Z,87.63
2022-09-28T07:10:28.339Z,87.43
2022-09-28T07:11:26.324Z,87.18
2022-09-28T07:12:26.317Z,86.88
2022-09-28T07:13:52.704Z,86.88
2022-09-28T07:14:46.249Z,87.43
2022-09-28T07:15:28.284Z,86.88
2022-09-28T07:16:29.837Z,86.77
2022-09-28T07:17:27.352Z,87.14
2022-09-28T07:18:26.293Z,85.47
2022-09-28T07:19:26.240Z,84.22
2022-09-28T07:20:26.285Z,81.62
2022-09-28T07:21:30.399Z,79.68
2022-09-28T07:22:40.165Z,80.47
2022-09-28T07:23:28.236Z,80.88
2022-09-28T07:24:26.194Z,80.71
2022-09-28T07:25:26.185Z,81.98
2022-09-28T07:26:26.182Z,82.79
2022-09-28T07:27:28.925Z,83.95
2022-09-28T07:28:27.167Z,83.95
2022-09-28T07:29:26.147Z,85.08
2022-09-28T07:30:26.210Z,84.98
2022-09-28T07:31:26.130Z,84.00
2022-09-28T07:32:26.139Z,83.79
2022-09-28T07:33:26.112Z,84.20
2022-09-28T07:34:26.096Z,84.81
2022-09-28T07:35:26.095Z,85.53
2022-09-28T07:36:26.099Z,85.06
2022-09-28T07:37:26.069Z,83.93
2022-09-28T07:38:26.082Z,83.69
2022-09-28T07:39:26.041Z,84.61
2022-09-28T07:40:26.148Z,84.17
2022-09-28T07:41:26.040Z,85.26
2022-09-28T07:42:26.014Z,85.06
2022-09-28T07:43:26.011Z,85.50
2022-09-28T07:44:25.998Z,83.76
2022-09-28T07:45:25.979Z,85.55
2022-09-28T07:46:26.124Z,85.14
2022-09-28T07:47:28.594Z,85.64
2022-09-28T07:48:26.967Z,86.05
2022-09-28T07:49:25.951Z,85.85
2022-09-28T07:50:25.933Z,85.44
2022-09-28T07:51:25.951Z,85.24
2022-09-28T07:52:25.917Z,85.55
2022-09-28T07:53:25.906Z,86.83
2022-09-28T07:54:25.900Z,85.85
2022-09-28T07:55:25.895Z,85.91
2022-09-28T07:56:25.899Z,85.71
2022-09-28T07:57:25.866Z,85.71
2022-09-28T07:58:25.851Z,86.22
2022-09-28T07:59:25.852Z,85.71
2022-09-28T08:00:25.839Z,85.26
2022-09-28T08:01:25.892Z,83.73
2022-09-28T08:02:25.928Z,83.69
2022-09-28T08:03:25.810Z,82.77
2022-09-28T08:04:25.800Z,83.07
2022-09-28T08:05:25.795Z,83.79
2022-09-28T08:06:25.806Z,83.83
2022-09-28T08:07:25.771Z,84.09
2022-09-28T08:08:57.674Z,85.12
2022-09-28T08:09:25.750Z,84.75
2022-09-28T08:10:25.753Z,84.91
2022-09-28T08:11:25.731Z,85.57
2022-09-28T08:12:25.756Z,84.17
2022-09-28T08:13:26.976Z,85.30
2022-09-28T08:14:26.737Z,85.61
2022-09-28T08:15:25.702Z,85.81
2022-09-28T08:16:25.755Z,84.03
2022-09-28T08:17:25.708Z,84.22
2022-09-28T08:18:25.684Z,80.77
2022-09-28T08:19:25.654Z,80.87
2022-09-28T08:20:25.649Z,79.62
2022-09-28T08:21:25.668Z,80.43
2022-09-28T08:22:25.632Z,81.54
2022-09-28T08:23:25.642Z,79.23
2022-09-28T08:24:25.609Z,78.11
2022-09-28T08:25:25.597Z,76.48
2022-09-28T08:26:25.584Z,74.76
2022-09-28T08:27:25.561Z,76.35
2022-09-28T08:28:26.587Z,76.18
2022-09-28T08:29:25.601Z,76.76
2022-09-28T08:30:25.589Z,78.84
2022-09-28T08:31:25.539Z,79.41
2022-09-28T08:32:25.528Z,79.82
2022-09-28T08:33:25.536Z,79.62
2022-09-28T08:34:25.507Z,78.33
2022-09-28T08:35:25.488Z,80.16
2022-09-28T08:36:25.508Z,80.07
2022-09-28T08:37:25.474Z,79.52
2022-09-28T08:38:25.459Z,78.87
2022-09-28T08:39:25.465Z,78.35
2022-09-28T08:40:25.499Z,76.42
2022-09-28T08:41:25.454Z,74.62
2022-09-28T08:42:25.428Z,76.56
2022-09-28T08:43:25.412Z,76.39
2022-09-28T08:44:25.416Z,78.12
2022-09-28T08:45:25.398Z,77.95
2022-09-28T08:46:27.124Z,76.25
2022-09-28T08:47:25.380Z,75.23
2022-09-28T08:48:25.383Z,72.04
2022-09-28T08:49:26.403Z,70.42
2022-09-28T08:50:26.342Z,72.48
2022-09-28T08:51:25.348Z,74.24
2022-09-28T08:52:25.341Z,74.69
2022-09-28T08:53:25.312Z,72.28
2022-09-28T08:54:25.299Z,72.52
2022-09-28T08:55:25.302Z,74.25
2022-09-28T08:56:25.280Z,76.32
2022-09-28T08:57:25.288Z,76.22
2022-09-28T08:58:25.259Z,77.17
2022-09-28T08:59:25.258Z,76.35
2022-09-28T09:00:25.267Z,77.62
2022-09-28T09:01:25.270Z,77.86
2022-09-28T09:02:25.328Z,78.27
2022-09-28T09:03:25.216Z,79.63
2022-09-28T09:04:25.209Z,77.51
2022-09-28T09:05:25.207Z,76.96
2022-09-28T09:06:25.189Z,75.84
2022-09-28T09:07:25.184Z,74.31
2022-09-28T09:08:25.169Z,72.28
2022-09-28T09:09:25.146Z,73.94
2022-09-28T09:10:25.165Z,73.77
2022-09-28T09:11:25.127Z,70.96
2022-09-28T09:12:25.156Z,71.09
2022-09-28T09:13:25.136Z,69.57
2022-09-28T09:14:25.111Z,70.79
2022-09-28T09:15:25.113Z,68.05
2022-09-28T09:16:25.133Z,68.90
2022-09-28T09:17:25.114Z,66.33
2022-09-28T09:18:25.074Z,70.56
2022-09-28T09:19:25.064Z,69.58
2022-09-28T09:20:25.071Z,67.01
2022-09-28T09:21:25.038Z,65.80
2022-09-28T09:22:25.047Z,66.50
2022-09-28T09:23:25.036Z,67.82
2022-09-28T09:24:25.020Z,66.19
2022-09-28T09:25:25.001Z,65.65
2022-09-28T09:26:26.270Z,68.22
2022-09-28T09:27:26.009Z,67.94
2022-09-28T09:28:24.970Z,70.04
2022-09-28T09:29:24.964Z,67.75
2022-09-28T09:30:27.165Z,68.49
2022-09-28T09:31:24.986Z,65.70
2022-09-28T09:32:24.950Z,66.64
2022-09-28T09:33:24.925Z,65.31
2022-09-28T09:34:24.931Z,66.29
2022-09-28T09:35:29.279Z,67.47
2022-09-28T09:36:25.893Z,69.16
2022-09-28T09:37:24.881Z,70.31
2022-09-28T09:38:24.885Z,71.06
2022-09-28T09:39:24.890Z,72.17
2022-09-28T09:40:24.958Z,73.26
2022-09-28T09:41:24.865Z,74.49
2022-09-28T09:42:24.836Z,74.52
2022-09-28T09:43:28.025Z,76.50
2022-09-28T09:44:24.844Z,76.19
2022-09-28T09:45:24.807Z,77.96
2022-09-28T09:46:24.834Z,77.59
2022-09-28T09:47:25.788Z,78.61
2022-09-28T09:48:24.772Z,78.50
2022-09-28T09:49:24.764Z,78.41
2022-09-28T09:50:24.777Z,78.50
2022-09-28T09:51:24.766Z,79.55
2022-09-28T09:52:24.804Z,78.33
2022-09-28T09:53:24.750Z,76.70
2022-09-28T09:54:24.722Z,78.70
2022-09-28T09:55:29.661Z,80.54
2022-09-28T09:56:25.697Z,78.60
2022-09-28T09:57:24.688Z,77.78
2022-09-28T09:58:24.687Z,77.89
2022-09-28T09:59:24.682Z,77.48
2022-09-28T10:00:24.680Z,76.25
2022-09-28T10:01:24.739Z,76.76
2022-09-28T10:02:24.722Z,76.35
2022-09-28T10:03:24.626Z,77.85
2022-09-28T10:04:24.626Z,74.42
2022-09-28T10:05:24.614Z,75.16
2022-09-28T10:06:24.635Z,76.39
2022-09-28T10:07:24.602Z,73.88
2022-09-28T10:08:24.602Z,76.97
2022-09-28T10:09:24.576Z,76.43
2022-09-28T10:10:24.563Z,76.29
2022-09-28T10:11:24.559Z,77.72
2022-09-28T10:12:24.545Z,76.06
2022-09-28T10:13:24.566Z,78.82
2022-09-28T10:14:24.530Z,79.27
2022-09-28T10:15:24.523Z,79.27
2022-09-28T10:16:24.543Z,81.62
2022-09-28T10:17:24.495Z,78.86
2022-09-28T10:18:24.500Z,81.38
2022-09-28T10:19:24.480Z,79.53
2022-09-28T10:20:24.483Z,80.76
2022-09-28T10:21:24.452Z,81.13
2022-09-28T10:22:24.446Z,81.65
2022-09-28T10:23:24.465Z,79.80
2022-09-28T10:24:24.434Z,81.17
2022-09-28T10:25:24.416Z,81.54
2022-09-28T10:26:25.268Z,81.27
2022-09-28T10:27:24.406Z,82.20
2022-09-28T10:28:24.390Z,82.70
2022-09-28T10:29:24.380Z,82.81
2022-09-28T10:30:24.381Z,84.14
2022-09-28T10:31:24.365Z,82.77
2022-09-28T10:32:24.352Z,84.00
2022-09-28T10:33:24.343Z,83.38
2022-09-28T10:34:24.349Z,81.85
2022-09-28T10:35:24.339Z,81.65
2022-09-28T10:36:24.303Z,82.83
2022-09-28T10:37:24.307Z,82.22
2022-09-28T10:38:24.289Z,82.12
2022-09-28T10:39:24.281Z,82.08
2022-09-28T10:40:24.344Z,79.63
2022-09-28T10:41:24.260Z,80.10
2022-09-28T10:42:24.260Z,81.84
2022-09-28T10:43:24.240Z,80.71
2022-09-28T10:44:24.230Z,79.39
2022-09-28T10:45:24.232Z,79.45
2022-09-28T10:46:24.270Z,78.43
2022-09-28T10:47:24.208Z,79.93
2022-09-28T10:48:24.190Z,79.38
2022-09-28T10:49:24.190Z,78.73
2022-09-28T10:50:24.179Z,80.26
2022-09-28T10:51:24.156Z,80.26
2022-09-28T10:52:24.201Z,79.41
2022-09-28T10:53:24.175Z,77.67
2022-09-28T10:54:24.133Z,78.35
2022-09-28T10:55:24.121Z,76.11
2022-09-28T10:56:24.115Z,76.45
2022-09-28T10:57:24.106Z,76.25
2022-09-28T10:58:24.123Z,76.49
2022-09-28T10:59:24.095Z,76.79
2022-09-28T11:00:24.076Z,76.90
2022-09-28T11:01:24.091Z,77.47
2022-09-28T11:02:24.074Z,79.30
2022-09-28T11:03:24.036Z,76.45
2022-09-28T11:04:24.043Z,75.27
2022-09-28T11:05:24.027Z,76.45
2022-09-28T11:06:24.012Z,76.04
2022-09-28T11:07:23.995Z,77.78
2022-09-28T11:08:23.990Z,75.20
2022-09-28T11:09:27.087Z,78.15
2022-09-28T11:10:24.979Z,74.69
2022-09-28T11:11:23.963Z,73.36
2022-09-28T11:12:23.959Z,76.72
2022-09-28T11:13:23.948Z,73.71
2022-09-28T11:14:23.955Z,74.82
2022-09-28T11:15:23.930Z,74.52
2022-09-28T11:16:23.964Z,74.45
2022-09-28T11:17:23.897Z,73.94
2022-09-28T11:18:23.886Z,71.87
2022-09-28T11:19:23.903Z,72.58
2022-09-28T11:20:27.522Z,76.25
2022-09-28T11:21:24.861Z,76.52
2022-09-28T11:22:23.855Z,76.48
2022-09-28T11:23:23.859Z,76.25
2022-09-28T11:24:24.030Z,76.45
2022-09-28T11:25:23.825Z,75.23
2022-09-28T11:26:23.807Z,72.58
2022-09-28T11:27:23.829Z,73.94
2022-09-28T11:28:23.813Z,71.30
2022-09-28T11:29:23.783Z,73.60
2022-09-28T11:30:23.848Z,72.62
2022-09-28T11:31:23.757Z,72.21
2022-09-28T11:32:23.766Z,72.52
2022-09-28T11:33:23.767Z,72.25
2022-09-28T11:34:36.194Z,72.45
2022-09-28T11:35:25.728Z,74.08
2022-09-28T11:36:23.716Z,74.99
2022-09-28T11:37:23.702Z,71.64
2022-09-28T11:38:23.714Z,71.16
2022-09-28T11:39:23.676Z,72.08
2022-09-28T11:40:23.752Z,72.17
2022-09-28T11:41:23.668Z,71.36
2022-09-28T11:42:23.644Z,72.21
2022-09-28T11:43:23.638Z,72.01
2022-09-28T11:44:23.645Z,72.72
2022-09-28T11:45:23.652Z,74.15
2022-09-28T11:46:23.645Z,73.94
2022-09-28T11:47:23.609Z,76.28
2022-09-28T11:48:23.587Z,74.96
2022-09-28T11:49:23.576Z,75.33
2022-09-28T11:50:24.618Z,72.89
2022-09-28T11:51:24.554Z,73.74
2022-09-28T11:52:24.625Z,73.84
2022-09-28T11:53:23.544Z,74.82
2022-09-28T11:54:23.532Z,74.86
2022-09-28T11:55:23.513Z,74.55
2022-09-28T11:56:23.511Z,74.49
2022-09-28T11:57:23.512Z,74.49
2022-09-28T11:58:23.548Z,74.55
2022-09-28T11:59:23.488Z,74.90
2022-09-28T12:00:23.461Z,76.18
2022-09-28T12:01:23.461Z,75.20
2022-09-28T12:02:23.611Z,75.30
2022-09-28T12:03:23.553Z,74.42
2022-09-28T12:04:23.457Z,74.73
2022-09-28T12:05:23.415Z,75.44
2022-09-28T12:06:23.397Z,74.62
2022-09-28T12:07:23.415Z,75.13
2022-09-28T12:08:23.388Z,74.52
2022-09-28T12:09:23.393Z,72.38
2022-09-28T12:10:23.372Z,73.81
2022-09-28T12:11:23.360Z,73.91
2022-09-28T12:12:23.346Z,76.42
2022-09-28T12:13:23.339Z,75.92
2022-09-28T12:14:23.343Z,72.92
2022-09-28T12:15:23.325Z,72.62
2022-09-28T12:16:46.842Z,75.95
2022-09-28T12:17:25.355Z,73.71
2022-09-28T12:18:23.277Z,75.40
2022-09-28T12:19:23.285Z,73.87
2022-09-28T12:20:24.266Z,74.89
2022-09-28T12:21:23.275Z,74.85
2022-09-28T12:22:23.244Z,72.48
2022-09-28T12:23:23.239Z,73.60
2022-09-28T12:24:23.238Z,74.21
2022-09-28T12:25:23.221Z,75.06
2022-09-28T12:26:23.212Z,74.45
2022-09-28T12:27:23.210Z,74.45
2022-09-28T12:28:23.171Z,75.06
2022-09-28T12:29:23.172Z,74.15
2022-09-28T12:30:23.167Z,74.55
2022-09-28T12:31:23.217Z,74.38
2022-09-28T12:32:23.158Z,74.01
2022-09-28T12:33:23.136Z,75.64
2022-09-28T12:34:23.123Z,75.30
2022-09-28T12:35:23.125Z,75.03
2022-09-28T12:36:23.123Z,75.95
2022-09-28T12:37:23.107Z,76.50
2022-09-28T12:38:23.110Z,74.86
2022-09-28T12:39:35.515Z,76.05
2022-09-28T12:40:24.105Z,77.89
2022-09-28T12:41:23.058Z,74.83
2022-09-28T12:42:23.046Z,76.46
2022-09-28T12:43:23.040Z,77.58
2022-09-28T12:44:23.039Z,76.97
2022-09-28T12:45:23.015Z,76.35
2022-09-28T12:46:23.069Z,76.35
2022-09-28T12:47:23.015Z,78.26
2022-09-28T12:48:22.990Z,77.68
2022-09-28T12:50:45.585Z,78.30
2022-09-28T12:51:24.998Z,79.52
2022-09-28T12:52:22.954Z,78.60
2022-09-28T12:53:22.945Z,77.75